createdAt,value
2022-08-09T00:00:11.386Z,1005.60
2022-08-09T00:01:10.675Z,1005.58
2022-08-09T00:02:09.696Z,1005.61
2022-08-09T00:04:00.037Z,1005.56
2022-08-09T00:04:15.354Z,1005.55
2022-08-09T00:06:18.065Z,1005.58
2022-08-09T00:06:18.878Z,1005.62
2022-08-09T00:07:10.753Z,1005.61
2022-08-09T00:08:09.920Z,1005.57
2022-08-09T00:09:08.384Z,1005.52
2022-08-09T00:10:08.374Z,1005.62
2022-08-09T00:11:24.362Z,1005.53
2022-08-09T00:12:09.346Z,1005.62
2022-08-09T00:13:17.598Z,1005.56
2022-08-09T00:14:09.425Z,1005.55
2022-08-09T00:15:08.322Z,1005.54
2022-08-09T00:16:09.306Z,1005.53
2022-08-09T00:17:08.310Z,1005.55
2022-08-09T00:18:12.041Z,1005.54
2022-08-09T00:19:09.534Z,1005.54
2022-08-09T00:20:08.267Z,1005.54
2022-08-09T00:21:08.689Z,1005.51
2022-08-09T00:22:08.241Z,1005.51
2022-08-09T00:23:57.280Z,1005.53
2022-08-09T00:24:09.272Z,1005.54
2022-08-09T00:25:08.519Z,1005.51
2022-08-09T00:26:08.192Z,1005.54
2022-08-09T00:27:08.185Z,1005.50
2022-08-09T00:28:08.169Z,1005.47
2022-08-09T00:29:12.320Z,1005.56
2022-08-09T00:30:16.285Z,1005.50
2022-08-09T00:31:57.651Z,1005.50
2022-08-09T00:32:09.142Z,1005.48
2022-08-09T00:33:08.127Z,1005.44
2022-08-09T00:34:08.114Z,1005.43
2022-08-09T00:35:08.113Z,1005.43
2022-08-09T00:36:08.074Z,1005.45
2022-08-09T00:37:08.062Z,1005.41
2022-08-09T00:38:08.062Z,1005.44
2022-08-09T00:39:16.822Z,1005.42
2022-08-09T00:40:16.698Z,1005.43
2022-08-09T00:41:09.122Z,1005.39
2022-08-09T00:44:11.191Z,1005.43
2022-08-09T00:44:13.564Z,1005.41
2022-08-09T00:44:24.897Z,1005.50
2022-08-09T00:45:16.183Z,1005.46
2022-08-09T00:46:08.986Z,1005.45
2022-08-09T00:47:07.943Z,1005.50
2022-08-09T00:48:08.946Z,1005.39
2022-08-09T00:49:08.924Z,1005.39
2022-08-09T00:50:07.916Z,1005.52
2022-08-09T00:51:10.433Z,1005.46
2022-08-09T00:52:17.489Z,1005.45
2022-08-09T00:53:10.715Z,1005.49
2022-08-09T00:54:07.875Z,1005.47
2022-08-09T00:55:07.865Z,1005.51
2022-08-09T00:56:09.783Z,1005.47
2022-08-09T00:57:10.240Z,1005.49
2022-08-09T00:58:09.132Z,1005.53
2022-08-09T00:59:07.820Z,1005.49
2022-08-09T01:00:20.999Z,1005.51
2022-08-09T01:01:08.891Z,1005.50
2022-08-09T01:02:08.777Z,1005.55
2022-08-09T01:03:07.769Z,1005.45
2022-08-09T01:04:07.779Z,1005.48
2022-08-09T01:05:14.340Z,1005.46
2022-08-09T01:06:17.510Z,1005.50
2022-08-09T01:07:08.718Z,1005.48
2022-08-09T01:08:08.699Z,1005.50
2022-08-09T01:09:09.648Z,1005.49
2022-08-09T01:10:07.744Z,1005.49
2022-08-09T01:11:08.555Z,1005.48
2022-08-09T01:12:08.454Z,1005.46
2022-08-09T01:13:07.650Z,1005.48
2022-08-09T01:14:07.632Z,1005.44
2022-08-09T01:15:10.022Z,1005.42
2022-08-09T01:16:08.631Z,1005.49
2022-08-09T01:17:08.897Z,1005.47
2022-08-09T01:18:08.483Z,1005.48
2022-08-09T01:19:07.582Z,1005.49
2022-08-09T01:20:08.609Z,1005.46
2022-08-09T01:21:10.029Z,1005.53
2022-08-09T01:22:07.542Z,1005.56
2022-08-09T01:23:12.435Z,1005.49
2022-08-09T01:24:08.533Z,1005.52
2022-08-09T01:25:07.527Z,1005.55
2022-08-09T01:26:07.542Z,1005.53
2022-08-09T01:27:08.006Z,1005.49
2022-08-09T01:28:07.476Z,1005.49
2022-08-09T01:29:07.472Z,1005.46
2022-08-09T01:30:08.315Z,1005.51
2022-08-09T01:31:08.498Z,1005.47
2022-08-09T01:32:30.995Z,1005.47
2022-08-09T01:33:09.966Z,1005.46
2022-08-09T01:34:08.937Z,1005.44
2022-08-09T01:35:28.281Z,1005.43
2022-08-09T01:36:08.404Z,1005.47
2022-08-09T01:37:07.395Z,1005.51
2022-08-09T01:38:09.722Z,1005.45
2022-08-09T01:39:07.401Z,1005.50
2022-08-09T01:40:07.335Z,1005.44
2022-08-09T01:41:07.377Z,1005.45
2022-08-09T01:42:11.076Z,1005.46
2022-08-09T01:43:07.345Z,1005.40
2022-08-09T01:44:07.309Z,1005.48
2022-08-09T01:45:07.288Z,1005.46
2022-08-09T01:46:07.276Z,1005.49
2022-08-09T01:47:07.295Z,1005.47
2022-08-09T01:48:07.277Z,1005.47
2022-08-09T01:49:10.614Z,1005.55
2022-08-09T01:50:08.241Z,1005.54
2022-08-09T01:51:07.228Z,1005.50
2022-08-09T01:52:07.807Z,1005.52
2022-08-09T01:53:19.504Z,1005.47
2022-08-09T01:54:08.238Z,1005.48
2022-08-09T01:55:07.170Z,1005.43
2022-08-09T01:56:07.172Z,1005.48
2022-08-09T01:57:08.143Z,1005.47
2022-08-09T01:58:07.141Z,1005.46
2022-08-09T01:59:07.132Z,1005.48
2022-08-09T02:00:08.925Z,1005.48
2022-08-09T02:01:08.165Z,1005.45
2022-08-09T02:02:07.143Z,1005.44
2022-08-09T02:03:07.090Z,1005.49
2022-08-09T02:04:08.537Z,1005.55
2022-08-09T02:05:15.267Z,1005.48
2022-08-09T02:06:08.052Z,1005.48
2022-08-09T02:07:07.042Z,1005.43
2022-08-09T02:08:40.140Z,1005.50
2022-08-09T02:09:08.048Z,1005.54
2022-08-09T02:10:07.037Z,1005.50
2022-08-09T02:11:17.233Z,1005.53
2022-08-09T02:12:07.987Z,1005.52
2022-08-09T02:13:06.976Z,1005.52
2022-08-09T02:14:09.279Z,1005.52
2022-08-09T02:15:07.700Z,1005.60
2022-08-09T02:16:06.945Z,1005.52
2022-08-09T02:17:55.076Z,1005.56
2022-08-09T02:18:10.750Z,1005.59
2022-08-09T02:19:06.916Z,1005.53
2022-08-09T02:20:06.902Z,1005.61
2022-08-09T02:21:06.919Z,1005.58
2022-08-09T02:22:06.884Z,1005.59
2022-08-09T02:23:06.885Z,1005.62
2022-08-09T02:24:06.857Z,1005.60
2022-08-09T02:25:06.922Z,1005.59
2022-08-09T02:26:06.835Z,1005.61
2022-08-09T02:27:07.834Z,1005.59
2022-08-09T02:28:06.798Z,1005.62
2022-08-09T02:29:06.807Z,1005.61
2022-08-09T02:30:06.786Z,1005.62
2022-08-09T02:31:06.799Z,1005.61
2022-08-09T02:32:06.769Z,1005.59
2022-08-09T02:33:08.025Z,1005.58
2022-08-09T02:34:13.423Z,1005.63
2022-08-09T02:35:17.291Z,1005.59
2022-08-09T02:36:07.737Z,1005.55
2022-08-09T02:37:06.899Z,1005.54
2022-08-09T02:38:06.703Z,1005.52
2022-08-09T02:39:06.734Z,1005.50
2022-08-09T02:40:10.357Z,1005.54
2022-08-09T02:41:06.649Z,1005.54
2022-08-09T02:42:06.709Z,1005.52
2022-08-09T02:43:06.629Z,1005.54
2022-08-09T02:44:10.310Z,1005.52
2022-08-09T02:45:07.619Z,1005.50
2022-08-09T02:46:06.610Z,1005.51
2022-08-09T02:47:06.590Z,1005.54
2022-08-09T02:48:06.590Z,1005.55
2022-08-09T02:49:07.570Z,1005.48
2022-08-09T02:50:06.561Z,1005.50
2022-08-09T02:51:06.545Z,1005.51
2022-08-09T02:52:06.531Z,1005.55
2022-08-09T02:53:06.531Z,1005.58
2022-08-09T02:54:06.514Z,1005.58
2022-08-09T02:55:20.402Z,1005.56
2022-08-09T02:56:07.525Z,1005.52
2022-08-09T02:57:13.876Z,1005.51
2022-08-09T02:58:32.613Z,1005.52
2022-08-09T02:59:07.828Z,1005.53
2022-08-09T03:00:21.116Z,1005.51
2022-08-09T03:01:08.098Z,1005.49
2022-08-09T03:02:07.118Z,1005.53
2022-08-09T03:03:07.419Z,1005.47
2022-08-09T03:04:16.861Z,1005.48
2022-08-09T03:05:07.405Z,1005.46
2022-08-09T03:06:07.366Z,1005.49
2022-08-09T03:07:12.275Z,1005.50
2022-08-09T03:08:07.357Z,1005.48
2022-08-09T03:09:06.338Z,1005.53
2022-08-09T03:10:06.348Z,1005.42
2022-08-09T03:11:06.318Z,1005.52
2022-08-09T03:12:11.360Z,1005.46
2022-08-09T03:13:08.525Z,1005.50
2022-08-09T03:14:06.286Z,1005.55
2022-08-09T03:15:06.298Z,1005.46
2022-08-09T03:16:07.242Z,1005.52
2022-08-09T03:17:06.276Z,1005.53
2022-08-09T03:18:09.786Z,1005.49
2022-08-09T03:19:06.249Z,1005.51
2022-08-09T03:20:11.177Z,1005.46
2022-08-09T03:21:06.235Z,1005.58
2022-08-09T03:22:12.181Z,1005.59
2022-08-09T03:23:15.204Z,1005.59
2022-08-09T03:24:07.171Z,1005.59
2022-08-09T03:25:26.516Z,1005.67
2022-08-09T03:26:07.186Z,1005.60
2022-08-09T03:27:07.362Z,1005.62
2022-08-09T03:28:11.277Z,1005.60
2022-08-09T03:29:13.543Z,1005.63
2022-08-09T03:30:07.499Z,1005.67
2022-08-09T03:31:10.428Z,1005.61
2022-08-09T03:32:07.100Z,1005.64
2022-08-09T03:33:17.928Z,1005.64
2022-08-09T03:34:07.053Z,1005.65
2022-08-09T03:35:15.041Z,1005.63
2022-08-09T03:36:15.879Z,1005.70
2022-08-09T03:37:10.749Z,1005.72
2022-08-09T03:38:07.079Z,1005.76
2022-08-09T03:39:07.019Z,1005.75
2022-08-09T03:40:06.036Z,1005.66
2022-08-09T03:41:06.002Z,1005.74
2022-08-09T03:42:07.102Z,1005.69
2022-08-09T03:43:05.966Z,1005.68
2022-08-09T03:44:08.807Z,1005.68
2022-08-09T03:45:05.922Z,1005.74
2022-08-09T03:46:27.036Z,1005.75
2022-08-09T03:47:07.155Z,1005.69
2022-08-09T03:48:05.887Z,1005.73
2022-08-09T03:49:09.124Z,1005.71
2022-08-09T03:50:05.948Z,1005.73
2022-08-09T03:51:05.883Z,1005.67
2022-08-09T03:52:06.859Z,1005.71
2022-08-09T03:53:05.835Z,1005.73
2022-08-09T03:54:05.827Z,1005.67
2022-08-09T03:55:07.694Z,1005.71
2022-08-09T03:56:05.809Z,1005.71
2022-08-09T03:57:18.136Z,1005.74
2022-08-09T03:58:14.629Z,1005.67
2022-08-09T03:59:07.153Z,1005.77
2022-08-09T04:00:05.797Z,1005.68
2022-08-09T04:01:05.810Z,1005.73
2022-08-09T04:02:05.727Z,1005.69
2022-08-09T04:03:05.727Z,1005.69
2022-08-09T04:04:09.958Z,1005.80
2022-08-09T04:05:26.941Z,1005.75
2022-08-09T04:06:06.732Z,1005.78
2022-08-09T04:07:05.680Z,1005.74
2022-08-09T04:08:05.658Z,1005.75
2022-08-09T04:09:15.096Z,1005.77
2022-08-09T04:10:06.639Z,1005.78
2022-08-09T04:11:05.954Z,1005.74
2022-08-09T04:12:05.628Z,1005.82
2022-08-09T04:13:05.602Z,1005.78
2022-08-09T04:14:53.195Z,1005.74
2022-08-09T04:15:11.335Z,1005.84
2022-08-09T04:16:20.589Z,1005.82
2022-08-09T04:17:06.579Z,1005.82
2022-08-09T04:18:05.539Z,1005.84
2022-08-09T04:19:10.951Z,1005.83
2022-08-09T04:20:06.523Z,1005.81
2022-08-09T04:21:05.515Z,1005.87
2022-08-09T04:22:05.521Z,1005.87
2022-08-09T04:23:09.821Z,1005.84
2022-08-09T04:24:06.477Z,1005.87
2022-08-09T04:25:05.462Z,1005.84
2022-08-09T04:26:05.443Z,1005.91
2022-08-09T04:27:05.432Z,1005.92
2022-08-09T04:28:05.476Z,1005.91
2022-08-09T04:29:09.652Z,1005.89
2022-08-09T04:30:06.397Z,1005.88
2022-08-09T04:31:08.253Z,1005.89
2022-08-09T04:32:05.481Z,1005.95
2022-08-09T04:33:05.380Z,1005.91
2022-08-09T04:34:05.382Z,1005.89
2022-08-09T04:35:05.345Z,1006.01
2022-08-09T04:36:05.322Z,1005.98
2022-08-09T04:37:05.331Z,1005.97
2022-08-09T04:38:05.371Z,1005.93
2022-08-09T04:39:05.358Z,1005.99
2022-08-09T04:40:05.323Z,1006.06
2022-08-09T04:41:05.285Z,1006.01
2022-08-09T04:42:05.270Z,1006.01
2022-08-09T04:43:05.465Z,1005.99
2022-08-09T04:44:09.757Z,1006.05
2022-08-09T04:45:06.288Z,1006.06
2022-08-09T04:46:05.217Z,1006.06
2022-08-09T04:47:06.352Z,1006.08
2022-08-09T04:48:09.901Z,1006.03
2022-08-09T04:49:06.175Z,1006.05
2022-08-09T04:50:05.156Z,1006.10
2022-08-09T04:51:05.191Z,1006.08
2022-08-09T04:52:05.145Z,1006.17
2022-08-09T04:53:05.130Z,1006.15
2022-08-09T04:54:06.117Z,1006.12
2022-08-09T04:55:09.426Z,1006.13
2022-08-09T04:56:06.186Z,1006.16
2022-08-09T04:57:05.087Z,1006.17
2022-08-09T04:58:09.477Z,1006.14
2022-08-09T04:59:12.998Z,1006.14
2022-08-09T05:00:06.054Z,1006.14
2022-08-09T05:01:05.030Z,1006.17
2022-08-09T05:02:06.384Z,1006.16
2022-08-09T05:03:12.887Z,1006.19
2022-08-09T05:04:06.047Z,1006.23
2022-08-09T05:05:10.109Z,1006.24
2022-08-09T05:06:06.981Z,1006.28
2022-08-09T05:07:05.003Z,1006.31
2022-08-09T05:08:04.998Z,1006.32
2022-08-09T05:09:04.953Z,1006.40
2022-08-09T05:10:04.942Z,1006.30
2022-08-09T05:11:06.857Z,1006.33
2022-08-09T05:12:04.930Z,1006.33
2022-08-09T05:13:04.902Z,1006.31
2022-08-09T05:14:06.107Z,1006.37
2022-08-09T05:15:11.518Z,1006.38
2022-08-09T05:16:05.871Z,1006.33
2022-08-09T05:17:04.857Z,1006.33
2022-08-09T05:18:38.648Z,1006.35
2022-08-09T05:19:05.853Z,1006.30
2022-08-09T05:20:04.872Z,1006.38
2022-08-09T05:21:13.442Z,1006.41
2022-08-09T05:22:05.804Z,1006.44
2022-08-09T05:23:53.965Z,1006.42
2022-08-09T05:24:06.306Z,1006.36
2022-08-09T05:25:04.788Z,1006.45
2022-08-09T05:26:04.745Z,1006.40
2022-08-09T05:27:04.736Z,1006.39
2022-08-09T05:28:04.714Z,1006.41
2022-08-09T05:29:04.712Z,1006.39
2022-08-09T05:30:04.703Z,1006.43
2022-08-09T05:31:09.517Z,1006.44
2022-08-09T05:32:05.866Z,1006.45
2022-08-09T05:33:04.670Z,1006.44
2022-08-09T05:34:04.671Z,1006.41
2022-08-09T05:35:04.639Z,1006.41
2022-08-09T05:36:04.703Z,1006.46
2022-08-09T05:37:05.254Z,1006.43
2022-08-09T05:38:04.606Z,1006.45
2022-08-09T05:39:04.971Z,1006.49
2022-08-09T05:40:04.720Z,1006.46
2022-08-09T05:41:04.567Z,1006.49
2022-08-09T05:42:05.994Z,1006.48
2022-08-09T05:43:04.636Z,1006.51
2022-08-09T05:44:04.551Z,1006.47
2022-08-09T05:45:04.531Z,1006.50
2022-08-09T05:46:04.519Z,1006.50
2022-08-09T05:47:05.795Z,1006.50
2022-08-09T05:48:04.529Z,1006.45
2022-08-09T05:49:07.311Z,1006.50
2022-08-09T05:50:30.250Z,1006.59
2022-08-09T05:51:16.933Z,1006.59
2022-08-09T05:52:05.450Z,1006.57
2022-08-09T05:53:04.440Z,1006.58
2022-08-09T05:54:04.451Z,1006.57
2022-08-09T05:55:07.327Z,1006.61
2022-08-09T05:56:04.410Z,1006.59
2022-08-09T05:57:04.407Z,1006.57
2022-08-09T05:58:04.388Z,1006.66
2022-08-09T05:59:04.397Z,1006.65
2022-08-09T06:00:04.396Z,1006.63
2022-08-09T06:01:04.352Z,1006.64
2022-08-09T06:02:04.365Z,1006.57
2022-08-09T06:03:10.486Z,1006.68
2022-08-09T06:04:05.561Z,1006.62
2022-08-09T06:05:04.338Z,1006.67
2022-08-09T06:06:05.813Z,1006.65
2022-08-09T06:07:04.285Z,1006.64
2022-08-09T06:08:05.550Z,1006.70
2022-08-09T06:09:09.863Z,1006.71
2022-08-09T06:10:05.238Z,1006.64
2022-08-09T06:11:16.486Z,1006.71
2022-08-09T06:12:05.438Z,1006.67
2022-08-09T06:13:12.385Z,1006.69
2022-08-09T06:14:05.195Z,1006.71
2022-08-09T06:15:09.504Z,1006.76
2022-08-09T06:16:05.537Z,1006.76
2022-08-09T06:17:09.072Z,1006.74
2022-08-09T06:18:05.379Z,1006.77
2022-08-09T06:19:04.137Z,1006.75
2022-08-09T06:20:04.150Z,1006.73
2022-08-09T06:21:04.674Z,1006.69
2022-08-09T06:22:04.129Z,1006.72
2022-08-09T06:23:04.111Z,1006.70
2022-08-09T06:24:04.088Z,1006.73
2022-08-09T06:25:04.085Z,1006.75
2022-08-09T06:26:04.084Z,1006.74
2022-08-09T06:27:04.080Z,1006.79
2022-08-09T06:28:04.051Z,1006.75
2022-08-09T06:29:05.522Z,1006.75
2022-08-09T06:30:09.500Z,1006.73
2022-08-09T06:31:05.027Z,1006.82
2022-08-09T06:32:24.673Z,1006.83
2022-08-09T06:33:30.304Z,1006.83
2022-08-09T06:34:04.992Z,1006.83
2022-08-09T06:35:06.400Z,1006.87
2022-08-09T06:36:03.985Z,1006.71
2022-08-09T06:37:03.943Z,1006.83
2022-08-09T06:38:05.621Z,1006.82
2022-08-09T06:39:09.043Z,1006.85
2022-08-09T06:40:21.886Z,1006.76
2022-08-09T06:41:04.910Z,1006.83
2022-08-09T06:42:08.491Z,1006.79
2022-08-09T06:43:07.706Z,1006.80
2022-08-09T06:44:04.881Z,1006.83
2022-08-09T06:45:52.106Z,1006.82
2022-08-09T06:46:10.430Z,1006.87
2022-08-09T06:47:04.837Z,1006.79
2022-08-09T06:48:03.831Z,1006.87
2022-08-09T06:49:03.847Z,1006.84
2022-08-09T06:50:14.248Z,1006.87
2022-08-09T06:51:05.164Z,1006.82
2022-08-09T06:52:03.759Z,1006.86
2022-08-09T06:53:03.761Z,1006.85
2022-08-09T06:54:03.738Z,1006.82
2022-08-09T06:55:12.641Z,1006.86
2022-08-09T06:56:04.729Z,1006.79
2022-08-09T06:57:03.715Z,1006.87
2022-08-09T06:58:04.307Z,1006.82
2022-08-09T07:00:49.913Z,1006.87
2022-08-09T07:00:52.996Z,1006.91
2022-08-09T07:01:04.707Z,1006.92
2022-08-09T07:02:04.438Z,1006.88
2022-08-09T07:03:05.286Z,1006.88
2022-08-09T07:04:03.962Z,1007.01
2022-08-09T07:05:03.618Z,1006.92
2022-08-09T07:06:05.334Z,1006.94
2022-08-09T07:07:04.952Z,1006.96
2022-08-09T07:08:03.588Z,1006.95
2022-08-09T07:09:03.591Z,1006.95
2022-08-09T07:10:14.193Z,1006.94
2022-08-09T07:11:06.476Z,1006.94
2022-08-09T07:12:03.550Z,1006.94
2022-08-09T07:13:05.404Z,1006.90
2022-08-09T07:14:06.214Z,1006.88
2022-08-09T07:15:54.103Z,1006.95
2022-08-09T07:16:43.206Z,1006.93
2022-08-09T07:17:04.482Z,1006.95
2022-08-09T07:18:03.472Z,1006.95
2022-08-09T07:19:03.511Z,1006.95
2022-08-09T07:20:03.453Z,1006.92
2022-08-09T07:21:03.442Z,1006.97
2022-08-09T07:22:03.463Z,1006.96
2022-08-09T07:23:03.445Z,1006.94
2022-08-09T07:24:04.919Z,1006.94
2022-08-09T07:25:05.495Z,1006.90
2022-08-09T07:26:04.469Z,1006.93
2022-08-09T07:27:03.384Z,1006.95
2022-08-09T07:28:04.470Z,1006.99
2022-08-09T07:29:12.104Z,1006.99
2022-08-09T07:30:04.346Z,1007.00
2022-08-09T07:31:03.346Z,1006.96
2022-08-09T07:32:03.338Z,1006.90
2022-08-09T07:33:12.291Z,1006.98
2022-08-09T07:34:04.292Z,1006.98
2022-08-09T07:35:08.055Z,1007.02
2022-08-09T07:36:04.267Z,1006.91
2022-08-09T07:37:03.550Z,1006.99
2022-08-09T07:38:03.259Z,1006.99
2022-08-09T07:39:03.266Z,1006.96
2022-08-09T07:40:03.267Z,1006.96
2022-08-09T07:41:11.380Z,1007.00
2022-08-09T07:42:04.208Z,1006.97
2022-08-09T07:43:03.191Z,1006.98
2022-08-09T07:44:03.199Z,1006.94
2022-08-09T07:45:15.075Z,1006.93
2022-08-09T07:46:04.161Z,1006.99
2022-08-09T07:47:03.161Z,1006.98
2022-08-09T07:48:04.617Z,1006.95
2022-08-09T07:49:03.111Z,1006.99
2022-08-09T07:50:07.629Z,1006.99
2022-08-09T07:52:03.762Z,1006.93
2022-08-09T07:52:17.219Z,1006.93
2022-08-09T07:53:04.884Z,1007.01
2022-08-09T07:54:06.566Z,1006.92
2022-08-09T07:55:08.617Z,1006.95
2022-08-09T07:56:06.290Z,1006.94
2022-08-09T07:57:03.023Z,1006.97
2022-08-09T07:58:04.027Z,1006.93
2022-08-09T07:59:12.357Z,1006.93
2022-08-09T08:00:04.335Z,1006.89
2022-08-09T08:01:06.201Z,1006.94
2022-08-09T08:02:03.112Z,1006.90
2022-08-09T08:03:04.469Z,1006.91
2022-08-09T08:04:02.975Z,1006.94
2022-08-09T08:05:02.957Z,1006.91
2022-08-09T08:06:03.946Z,1006.91
2022-08-09T08:07:14.767Z,1006.90
2022-08-09T08:08:44.013Z,1006.91
2022-08-09T08:09:17.803Z,1006.89
2022-08-09T08:10:07.921Z,1006.93
2022-08-09T08:12:10.225Z,1006.90
2022-08-09T08:12:23.940Z,1006.88
2022-08-09T08:13:04.047Z,1006.89
2022-08-09T08:14:02.950Z,1006.90
2022-08-09T08:15:02.876Z,1006.85
2022-08-09T08:16:02.818Z,1006.87
2022-08-09T08:17:08.685Z,1006.87
2022-08-09T08:18:03.824Z,1006.86
2022-08-09T08:19:04.434Z,1006.85
2022-08-09T08:20:02.770Z,1006.85
2022-08-09T08:21:03.773Z,1006.81
2022-08-09T08:22:02.753Z,1006.86
2022-08-09T08:23:06.926Z,1006.86
2022-08-09T08:24:12.076Z,1006.85
2022-08-09T08:25:03.721Z,1006.89
2022-08-09T08:26:08.087Z,1006.88
2022-08-09T08:27:03.690Z,1006.89
2022-08-09T08:28:02.682Z,1006.95
2022-08-09T08:29:02.762Z,1006.93
2022-08-09T08:30:03.742Z,1006.92
2022-08-09T08:31:10.521Z,1006.96
2022-08-09T08:32:06.013Z,1006.93
2022-08-09T08:33:02.723Z,1006.85
2022-08-09T08:34:02.613Z,1006.88
2022-08-09T08:35:02.599Z,1006.85
2022-08-09T08:36:03.478Z,1006.85
2022-08-09T08:37:02.576Z,1006.87
2022-08-09T08:38:11.570Z,1006.90
2022-08-09T08:39:03.582Z,1006.82
2022-08-09T08:40:02.657Z,1006.82
2022-08-09T08:41:05.573Z,1006.89
2022-08-09T08:42:02.568Z,1006.86
2022-08-09T08:43:02.496Z,1006.84
2022-08-09T08:44:03.478Z,1006.85
2022-08-09T08:45:11.818Z,1006.84
2022-08-09T08:46:10.022Z,1006.82
2022-08-09T08:47:12.100Z,1006.76
2022-08-09T08:48:03.467Z,1006.83
2022-08-09T08:49:02.438Z,1006.76
2022-08-09T08:50:02.790Z,1006.86
2022-08-09T08:51:02.410Z,1006.74
2022-08-09T08:52:04.230Z,1006.77
2022-08-09T08:53:04.177Z,1006.75
2022-08-09T08:54:03.809Z,1006.76
2022-08-09T08:55:04.058Z,1006.76
2022-08-09T08:56:02.373Z,1006.74
2022-08-09T08:57:02.351Z,1006.75
2022-08-09T08:58:03.094Z,1006.73
2022-08-09T08:59:02.334Z,1006.76
2022-08-09T09:00:03.314Z,1006.74
2022-08-09T09:01:03.328Z,1006.81
2022-08-09T09:02:03.344Z,1006.75
2022-08-09T09:03:11.306Z,1006.78
2022-08-09T09:04:03.304Z,1006.78
2022-08-09T09:05:05.964Z,1006.84
2022-08-09T09:06:05.118Z,1006.80
2022-08-09T09:07:02.333Z,1006.78
2022-08-09T09:08:02.265Z,1006.74
2022-08-09T09:09:02.246Z,1006.74
2022-08-09T09:10:05.048Z,1006.84
2022-08-09T09:11:03.194Z,1006.80
2022-08-09T09:12:02.249Z,1006.76
2022-08-09T09:13:09.242Z,1006.86
2022-08-09T09:14:03.193Z,1006.79
2022-08-09T09:15:02.198Z,1006.84
2022-08-09T09:16:02.171Z,1006.81
2022-08-09T09:17:02.136Z,1006.77
2022-08-09T09:18:02.126Z,1006.79
2022-08-09T09:19:37.345Z,1006.73
2022-08-09T09:20:03.150Z,1006.77
2022-08-09T09:21:02.119Z,1006.75
2022-08-09T09:22:04.181Z,1006.73
2022-08-09T09:23:02.415Z,1006.66
2022-08-09T09:24:04.687Z,1006.66
2022-08-09T09:26:03.681Z,1006.68
2022-08-09T09:26:12.138Z,1006.71
2022-08-09T09:27:03.039Z,1006.71
2022-08-09T09:28:07.011Z,1006.71
2022-08-09T09:29:11.010Z,1006.73
2022-08-09T09:30:10.679Z,1006.76
2022-08-09T09:31:02.983Z,1006.72
2022-08-09T09:32:07.046Z,1006.73
2022-08-09T09:33:02.965Z,1006.73
2022-08-09T09:34:02.949Z,1006.70
2022-08-09T09:35:01.942Z,1006.74
2022-08-09T09:36:11.699Z,1006.78
2022-08-09T09:37:02.936Z,1006.75
2022-08-09T09:38:01.893Z,1006.80
2022-08-09T09:39:01.874Z,1006.77
2022-08-09T09:40:02.954Z,1006.74
2022-08-09T09:41:01.878Z,1006.66
2022-08-09T09:42:01.846Z,1006.73
2022-08-09T09:43:01.864Z,1006.73
2022-08-09T09:44:11.499Z,1006.76
2022-08-09T09:45:03.179Z,1006.77
2022-08-09T09:47:02.814Z,1006.72
2022-08-09T09:48:01.795Z,1006.75
2022-08-09T09:49:01.795Z,1006.70
2022-08-09T09:50:15.622Z,1006.72
2022-08-09T09:51:02.748Z,1006.63
2022-08-09T09:52:01.738Z,1006.68
2022-08-09T09:53:01.874Z,1006.67
2022-08-09T09:54:05.484Z,1006.66
2022-08-09T09:55:02.709Z,1006.69
2022-08-09T09:56:05.573Z,1006.69
2022-08-09T09:58:02.569Z,1006.61
2022-08-09T09:58:16.385Z,1006.62
2022-08-09T09:59:02.690Z,1006.66
2022-08-09T10:00:01.658Z,1006.68
2022-08-09T10:01:01.653Z,1006.64
2022-08-09T10:02:01.633Z,1006.62
2022-08-09T10:03:09.176Z,1006.67
2022-08-09T10:04:08.742Z,1006.65
2022-08-09T10:05:02.641Z,1006.67
2022-08-09T10:06:04.471Z,1006.64
2022-08-09T10:07:03.478Z,1006.64
2022-08-09T10:08:25.970Z,1006.60
2022-08-09T10:09:02.835Z,1006.66
2022-08-09T10:10:03.213Z,1006.71
2022-08-09T10:11:06.960Z,1006.58
2022-08-09T10:12:11.970Z,1006.67
2022-08-09T10:13:02.505Z,1006.65
2022-08-09T10:14:01.513Z,1006.65
2022-08-09T10:15:01.496Z,1006.58
2022-08-09T10:16:55.742Z,1006.60
2022-08-09T10:17:11.490Z,1006.58
2022-08-09T10:18:02.475Z,1006.54
2022-08-09T10:19:01.469Z,1006.66
2022-08-09T10:20:01.438Z,1006.60
2022-08-09T10:21:01.428Z,1006.58
2022-08-09T10:22:01.437Z,1006.53
2022-08-09T10:23:01.409Z,1006.57
2022-08-09T10:24:01.386Z,1006.55
2022-08-09T10:25:03.474Z,1006.55
2022-08-09T10:26:06.553Z,1006.52
2022-08-09T10:27:02.388Z,1006.53
2022-08-09T10:28:02.389Z,1006.56
2022-08-09T10:29:32.796Z,1006.53
2022-08-09T10:30:43.614Z,1006.58
2022-08-09T10:33:02.280Z,1006.57
2022-08-09T10:34:10.453Z,1006.56
2022-08-09T10:35:02.263Z,1006.59
2022-08-09T10:36:02.390Z,1006.53
2022-08-09T10:37:01.263Z,1006.51
2022-08-09T10:38:01.222Z,1006.54
2022-08-09T10:39:01.225Z,1006.53
2022-08-09T10:40:01.250Z,1006.53
2022-08-09T10:41:01.226Z,1006.51
2022-08-09T10:42:01.192Z,1006.51
2022-08-09T10:43:01.623Z,1006.46
2022-08-09T10:44:02.331Z,1006.39
2022-08-09T10:45:01.322Z,1006.44
2022-08-09T10:46:02.207Z,1006.43
2022-08-09T10:47:04.153Z,1006.44
2022-08-09T10:48:16.965Z,1006.47
2022-08-09T10:49:02.107Z,1006.46
2022-08-09T10:50:01.090Z,1006.42
2022-08-09T10:51:01.091Z,1006.40
2022-08-09T10:52:01.107Z,1006.44
2022-08-09T10:53:01.079Z,1006.47
2022-08-09T10:54:02.027Z,1006.43
2022-08-09T10:55:01.082Z,1006.41
2022-08-09T10:56:01.043Z,1006.42
2022-08-09T10:57:01.038Z,1006.39
2022-08-09T10:58:01.029Z,1006.39
2022-08-09T10:59:01.160Z,1006.39
2022-08-09T11:00:01.669Z,1006.37
2022-08-09T11:03:03.192Z,1006.35
2022-08-09T11:03:11.956Z,1006.36
2022-08-09T11:03:18.908Z,1006.33
2022-08-09T11:04:03.994Z,1006.37
2022-08-09T11:05:00.960Z,1006.41
2022-08-09T11:06:01.080Z,1006.35
2022-08-09T11:07:01.318Z,1006.36
2022-08-09T11:08:00.911Z,1006.43
2022-08-09T11:09:16.233Z,1006.32
2022-08-09T11:10:01.886Z,1006.29
2022-08-09T11:11:08.703Z,1006.31
2022-08-09T11:12:01.862Z,1006.48
2022-08-09T11:13:00.869Z,1006.48
2022-08-09T11:14:00.844Z,1006.42
2022-08-09T11:15:00.814Z,1006.36
2022-08-09T11:16:04.965Z,1006.42
2022-08-09T11:17:01.804Z,1006.29
2022-08-09T11:18:03.582Z,1006.30
2022-08-09T11:19:00.810Z,1006.30
2022-08-09T11:20:10.126Z,1006.31
2022-08-09T11:21:01.746Z,1006.34
2022-08-09T11:22:10.708Z,1006.27
2022-08-09T11:23:02.845Z,1006.27
2022-08-09T11:24:01.762Z,1006.22
2022-08-09T11:25:00.710Z,1006.24
2022-08-09T11:26:00.699Z,1006.20
2022-08-09T11:27:00.689Z,1006.24
2022-08-09T11:28:04.400Z,1006.28
2022-08-09T11:29:01.679Z,1006.26
2022-08-09T11:30:05.662Z,1006.24
2022-08-09T11:31:01.639Z,1006.24
2022-08-09T11:32:00.701Z,1006.26
2022-08-09T11:33:00.631Z,1006.18
2022-08-09T11:34:00.611Z,1006.16
2022-08-09T11:35:00.622Z,1006.14
2022-08-09T11:36:00.592Z,1006.16
2022-08-09T11:37:00.586Z,1006.18
2022-08-09T11:38:00.565Z,1006.19
2022-08-09T11:39:00.560Z,1006.21
2022-08-09T11:40:00.602Z,1006.27
2022-08-09T11:41:00.546Z,1006.36
2022-08-09T11:42:00.523Z,1006.24
2022-08-09T11:43:00.505Z,1006.32
2022-08-09T11:44:00.516Z,1006.35
2022-08-09T11:45:00.480Z,1006.30
2022-08-09T11:46:00.515Z,1006.26
2022-08-09T11:47:00.512Z,1006.18
2022-08-09T11:48:06.504Z,1006.21
2022-08-09T11:49:05.222Z,1006.22
2022-08-09T11:50:52.512Z,1006.24
2022-08-09T11:52:59.195Z,1006.22
2022-08-09T11:53:04.053Z,1006.23
2022-08-09T11:53:28.085Z,1006.22
2022-08-09T11:54:04.335Z,1006.18
2022-08-09T11:55:00.378Z,1006.20
2022-08-09T11:56:02.990Z,1006.19
2022-08-09T11:57:00.358Z,1006.25
2022-08-09T11:58:02.418Z,1006.21
2022-08-09T11:59:00.329Z,1006.20
2022-08-09T12:00:00.321Z,1006.21
2022-08-09T12:01:00.311Z,1006.16
2022-08-09T12:02:21.206Z,1006.12
2022-08-09T12:03:09.850Z,1006.14
2022-08-09T12:04:01.346Z,1006.11
2022-08-09T12:05:00.388Z,1006.12
2022-08-09T12:06:00.251Z,1006.10
2022-08-09T12:07:00.254Z,1006.09
2022-08-09T12:08:00.232Z,1006.08